Station info - map view · info · telemetry · weather · raw · status · beacons · messages · bulletins · browse · moving · my account
Callsign, ship name or locator: Clear       
It is possible to search using wildcards (*?) after a prefix. Example: OH*
APRS station JH7UJR-7 - show graphs
Map loading...
Comment: Watching main ch on 433.00MHz.
Mic-E message: In service
Location: 36°32.53' N 136°40.07' E - locator PM86IN00DC - show map - static map
2.9 miles East bearing 78° from Nonoichi, Ishikawa, Japan [?]
4.3 miles Southeast bearing 147° from Kanazawa-shi, Ishikawa, Japan
31.9 miles West bearing 251° from Toyama-shi, Toyama, Japan
Last position: 2018-04-08 04:50:55 EDT (17d 23h ago)
2018-04-08 17:50:55 JST local time at Nonoichi, Japan [?]
Altitude: 197 ft
Course: 109°
Speed: 7 MPH
Device: Yaesu: FT2D (ht)
Last path: JH7UJR-7>S6SRU3 via WIDE1-1,WIDE2-1,qAR,JA9ZNJ-10 (good)
Positions stored: 3794
Other SSIDs: JH7UJR JH7UJR-9
Stations near current position of JH7UJR-7 - show more
callsign distance last heard - EDT      callsign distance last heard - EDT
JF9NTF1.8 miles 280°2018-04-24 12:36:25 JF9NTF-71.8 miles 280°2018-04-14 05:54:04
JF9NTF-91.8 miles 280°2018-03-31 02:21:03 JH9VYA-91.8 miles 246°2018-04-15 22:54:29
JA9ZNJ-102.6 miles 309°2018-04-26 03:36:58 JG7OJV3.0 miles 304°2018-04-21 20:53:25
JA9QWG-93.4 miles 356°2018-04-22 05:40:56 JA9DIJ3.4 miles 345°2018-04-05 05:00:06
JA9DIJ-53.5 miles 345°2018-04-20 03:23:33 JA9DIJ-93.5 miles 345°2018-04-16 00:11:52
JA9DIJ-513.5 miles 345°2018-04-24 02:52:28 JA9DIJ-B3.5 miles 345°2018-04-25 00:17:03
JA9DIJ-523.5 miles 345°2018-03-28 23:50:47 JQ1JXX-94.0 miles 327°2018-03-30 21:23:40
JH9TJT-94.1 miles 288°2018-04-08 00:07:17 JE9OYL-94.4 miles 12°2018-04-26 03:46:28
JF9NZT-96.0 miles 255°2018-04-24 19:36:51 JE6MGQ-96.3 miles 229°2018-04-25 23:21:57
JH9YHS-36.3 miles 285°2018-04-26 03:45:08 JE9JPN-97.8 miles 266°2018-04-24 05:45:49
Stations which heard JH7UJR-7 directly on radio –
callsign pkts first heard - EDT last heard longest (tx => rx) longest at - EDT
JR4IUS-10 26 2018-04-04 16:58:23 2018-04-06 21:10:35 PM64DG > PM64FJ 12.1 miles 43° 2018-04-04 21:59:48
JF6YFU-2 4 2018-04-04 21:55:40 2018-04-04 22:11:11 PM64DG > PM53TO 63.2 miles 221° 2018-04-04 21:55:40
JN3VDE-10 6 2018-04-04 09:16:55 2018-04-04 09:28:17 PM74PT > PM74RT 9.1 miles 102° 2018-04-04 09:28:17
JE4YHI-10 4 2018-04-04 16:51:11 2018-04-04 22:32:55 PM64DG > PM64FM 19.3 miles 29° 2018-04-04 22:32:55
JR4KDC-10 34 2018-04-04 17:05:37 2018-04-06 21:02:17 PM64DH > PM64GI 13.8 miles 75° 2018-04-05 02:29:37
JA9YFO-10 16 2018-04-04 05:47:25 2018-04-08 03:40:05 PM85CX > PM86CB 5.6 miles 24° 2018-04-08 03:31:47
JE4YKI-13 117 2018-04-04 17:15:57 2018-04-07 00:58:58 PM64GF > PM64DI 17.2 miles 294° 2018-04-07 00:58:58
JA9ZNJ-10 30 2018-04-04 04:48:10 2018-04-08 04:50:55 PM86GN > PM86HN 5.3 miles 73° 2018-04-08 04:23:57
JE4YKP-2 68 2018-04-04 16:30:29 2018-04-07 01:23:33 PM64IJ > PM64DI 26.9 miles 270° 2018-04-07 01:23:33
JA5YVT-2 42 2018-04-04 11:31:48 2018-04-07 02:21:11 PM74BS > PM63KW 92.6 miles 232° 2018-04-04 11:31:48
JH3YBD-2 27 2018-04-04 09:37:36 2018-04-07 23:04:22 PM74BS > PM75HD 37.2 miles 50° 2018-04-04 11:29:45
JI3YVA-2 3 2018-04-04 10:42:22 2018-04-04 10:47:28 PM74HV > PM74IT 5.6 miles 152° 2018-04-04 10:47:28
JH3PYJ-10 1 2018-04-04 08:54:13 2018-04-04 08:54:13 PM74VW > PM74VW 1.0 miles 248° 2018-04-04 08:54:13
JR3YDV-10 10 2018-04-04 08:00:45 2018-04-04 09:03:30 PM74WX > PM74UX 9.3 miles 274° 2018-04-04 08:00:45
JF3UYN-10 9 2018-04-04 09:29:19 2018-04-04 09:41:44 PM74NT > PM74OT 7.8 miles 83° 2018-04-04 09:41:44
JA4YYF-2 3 2018-04-04 11:24:35 2018-04-04 14:09:21 PM74CS > PM64RX 44.6 miles 290° 2018-04-04 11:24:35
JE4YLQ-10 47 2018-04-04 18:02:01 2018-04-05 02:31:42 PM64DI > PM64DG 5.6 miles 217° 2018-04-04 18:02:01
JE4YLR-10 5 2018-04-04 14:30:02 2018-04-07 02:06:42 PM64QM > PM64QL 3.5 miles 234° 2018-04-04 14:30:02
JO3HYR-10 3 2018-04-04 09:01:27 2018-04-04 09:23:07 PM74UV > PM74RL 32.1 miles 202° 2018-04-04 09:01:27
JR5YEB-10 1 2018-04-04 15:15:35 2018-04-04 15:15:35 PM64ML > PM63MU 42.0 miles 180° 2018-04-04 15:15:35
JA3VQW-10 2 2018-04-04 09:06:35 2018-04-04 09:10:43 PM74SU > PM74TT 6.3 miles 119° 2018-04-04 09:10:43
JA4ZRK 3 2018-04-04 14:31:01 2018-04-04 14:34:07 PM64QM > PM64PN 4.8 miles 302° 2018-04-04 14:31:01
JE3ZQR-10 16 2018-04-04 07:32:43 2018-04-04 08:48:01 PM85DE > PM75XC 18.7 miles 258° 2018-04-04 07:32:43
JM4WDK-2 7 2018-04-04 14:06:15 2018-04-07 02:23:15 PM64VO > PM64TM 7.8 miles 223° 2018-04-04 14:06:15
JE4YMQ-10 23 2018-04-04 11:38:58 2018-04-04 14:05:13 PM74AR > PM64WP 9.5 miles 232° 2018-04-04 11:38:58
JE4YIB-10 4 2018-04-07 02:25:19 2018-04-07 02:32:32 PM64VQ > PM64VO 6.1 miles 197° 2018-04-07 02:32:32
JR4QII-10 2 2018-04-04 15:12:29 2018-04-04 15:14:33 PM64ML > PM64MO 8.8 miles 351° 2018-04-04 15:12:29
JE3XST-10 1 2018-04-04 08:58:21 2018-04-04 08:58:21 PM74UW > PM75UA 5.7 miles 4° 2018-04-04 08:58:21
JR5YEM-10 1 2018-04-04 14:01:06 2018-04-04 14:01:06 PM64VP > PM74ED 47.9 miles 136° 2018-04-04 14:01:06
JO3DES-1 5 2018-04-04 07:53:28 2018-04-04 08:06:58 PM74WX > PM75XA 4.8 miles 72° 2018-04-04 08:06:58
JH4QHO-2 3 2018-04-04 16:52:14 2018-04-05 03:08:58 PM64DG > PM64FK 12.4 miles 35° 2018-04-04 22:54:38
JH9YVW-10 4 2018-04-08 03:41:13 2018-04-08 03:48:32 PM86DC > PM86CE 8.1 miles 342° 2018-04-08 03:41:13
JL3ZDB-2 5 2018-04-04 07:27:35 2018-04-04 07:47:17 PM85DF > PM85BC 13.2 miles 232° 2018-04-04 07:27:35
JO4DLN-10 35 2018-04-06 20:59:11 2018-04-07 01:03:02 PM64FI > PM64GF 10.9 miles 159° 2018-04-06 20:59:11
JJ1BDX-12 5 2018-04-04 09:17:57 2018-04-04 09:24:09 PM74QT > PM74RT 5.4 miles 93° 2018-04-04 09:24:09
JE4YOD-10 2 2018-04-04 11:40:00 2018-04-07 02:30:28 PM64VP > PM64XP 10.1 miles 87° 2018-04-07 02:30:28

Only position packets which were originated by the station are shown here. The range statistics show some extra long hops, because some digipeaters do not correctly add themselves to the digipeater path. Please check the raw packets.
About this site
This page shows real-time information collected from the Automatic Position Reporting System Internet network (APRS-IS). APRS is used by amateur (ham) radio operators to transmit real-time position information, weather data, telemetry and messages over the radio. A vehicle equipped with a GPS receiver, a VHF transmitter or HF transceiver and a small computer device called a tracker transmits it's location, speed and course in a small data packet, which is then received by a nearby iGate receiving site which forwards the packet on the Internet. Systems connected to the Internet can send information on the APRS-IS without a radio transmitter, or collect and display information transmitted anywhere in the world.
FAQ · Blog · Discussion group · Linking to aprs.fi · AIS sites · Service status · Database statistics · Advertising on aprs.fi · Technical details · API · Change log · Planned changes · Credits and thanks · Terms Of Service · iPhone/iPad APRS